createdAt,value
2019-03-06T00:01:14.196Z,13.90
2019-03-06T00:03:44.596Z,10.63
2019-03-06T00:06:16.901Z,12.67
2019-03-06T00:08:47.602Z,10.23
2019-03-06T00:11:18.981Z,10.53
2019-03-06T00:13:49.798Z,10.67
2019-03-06T00:16:20.535Z,11.00
2019-03-06T00:18:51.467Z,10.93
2019-03-06T00:21:22.261Z,10.67
2019-03-06T00:23:53.057Z,9.37
2019-03-06T00:26:23.780Z,11.27
2019-03-06T00:28:54.631Z,10.83
2019-03-06T00:31:25.468Z,10.20
2019-03-06T00:33:55.940Z,11.90
2019-03-06T00:36:27.129Z,10.30
2019-03-06T00:38:57.980Z,14.13
2019-03-06T00:41:33.297Z,9.87
2019-03-06T00:44:04.457Z,9.83
2019-03-06T00:46:34.848Z,11.93
2019-03-06T00:49:05.606Z,11.13
2019-03-06T00:51:36.089Z,11.20
2019-03-06T00:54:06.777Z,11.50
2019-03-06T00:56:37.611Z,10.70
2019-03-06T00:59:08.378Z,11.33
2019-03-06T01:01:39.382Z,10.07
2019-03-06T01:04:10.130Z,14.60
2019-03-06T01:06:40.715Z,10.33
2019-03-06T01:09:12.093Z,10.87
2019-03-06T01:11:42.823Z,9.63
2019-03-06T01:14:14.068Z,9.13
2019-03-06T01:16:44.771Z,10.43
2019-03-06T01:19:15.434Z,9.67
2019-03-06T01:21:46.291Z,11.40
2019-03-06T01:24:17.027Z,12.77
2019-03-06T01:26:47.943Z,11.43
2019-03-06T01:29:18.812Z,11.47
2019-03-06T01:31:49.519Z,10.27
2019-03-06T01:34:21.890Z,9.77
2019-03-06T01:36:54.292Z,10.93
2019-03-06T01:39:29.614Z,9.73
2019-03-06T01:42:02.092Z,11.27
2019-03-06T01:44:37.548Z,10.83
2019-03-06T01:47:08.572Z,10.23
2019-03-06T01:49:39.318Z,10.80
2019-03-06T01:52:10.261Z,12.00
2019-03-06T01:54:40.781Z,14.03
2019-03-06T01:57:11.613Z,13.27
2019-03-06T01:59:42.342Z,13.30
2019-03-06T02:02:13.407Z,13.80
2019-03-06T02:04:44.233Z,14.07
2019-03-06T02:07:14.953Z,13.07
2019-03-06T02:09:46.099Z,11.83
2019-03-06T02:12:16.983Z,13.47
2019-03-06T02:14:47.815Z,14.03
2019-03-06T02:17:18.740Z,15.73
2019-03-06T02:19:49.954Z,14.50
2019-03-06T02:22:20.805Z,13.67
2019-03-06T02:24:51.279Z,13.17
2019-03-06T02:27:22.072Z,15.87
2019-03-06T02:29:52.574Z,14.80
2019-03-06T02:32:23.356Z,14.07
2019-03-06T02:34:54.169Z,17.10
2019-03-06T02:37:24.650Z,15.70
2019-03-06T02:39:55.415Z,13.87
2019-03-06T02:42:26.242Z,15.13
2019-03-06T02:44:56.907Z,16.10
2019-03-06T02:47:27.627Z,17.53
2019-03-06T02:49:58.346Z,16.83
2019-03-06T02:52:29.205Z,17.10
2019-03-06T02:55:00.524Z,16.37
2019-03-06T02:57:31.308Z,16.47
2019-03-06T03:00:03.743Z,14.53
2019-03-06T03:02:36.266Z,14.90
2019-03-06T03:05:11.265Z,16.70
2019-03-06T03:07:42.025Z,16.33
2019-03-06T03:10:13.164Z,16.27
2019-03-06T03:12:43.981Z,18.30
2019-03-06T03:15:14.838Z,16.43
2019-03-06T03:17:45.655Z,17.70
2019-03-06T03:20:16.776Z,18.37
2019-03-06T03:22:47.521Z,16.10
2019-03-06T03:25:18.279Z,16.90
2019-03-06T03:27:49.346Z,18.20
2019-03-06T03:30:20.036Z,19.20
2019-03-06T03:32:50.876Z,17.50
2019-03-06T03:35:21.706Z,16.73
2019-03-06T03:37:52.155Z,16.97
2019-03-06T03:40:23.097Z,17.70
2019-03-06T03:42:54.136Z,18.10
2019-03-06T03:45:24.873Z,15.73
2019-03-06T03:47:55.721Z,16.27
2019-03-06T03:50:26.981Z,16.90
2019-03-06T03:52:57.420Z,16.60
2019-03-06T03:55:27.881Z,17.43
2019-03-06T03:57:58.637Z,16.53
2019-03-06T04:00:29.112Z,16.80
2019-03-06T04:03:00.335Z,15.90
2019-03-06T04:05:31.165Z,19.00
2019-03-06T04:08:01.874Z,18.20
2019-03-06T04:10:32.336Z,16.63
2019-03-06T04:13:03.064Z,16.30
2019-03-06T04:15:33.957Z,16.77
2019-03-06T04:18:04.354Z,14.93
2019-03-06T04:20:35.191Z,18.47
2019-03-06T04:23:06.103Z,16.77
2019-03-06T04:25:37.331Z,14.20
2019-03-06T04:28:08.226Z,17.87
2019-03-06T04:30:39.010Z,15.73
2019-03-06T04:33:09.474Z,16.40
2019-03-06T04:35:39.976Z,16.20
2019-03-06T04:38:10.800Z,17.33
2019-03-06T04:40:41.637Z,17.87
2019-03-06T04:43:12.511Z,15.90
2019-03-06T04:45:43.317Z,16.67
2019-03-06T04:48:14.012Z,14.90
2019-03-06T04:50:44.753Z,17.10
2019-03-06T04:53:15.172Z,14.70
2019-03-06T04:55:46.051Z,17.00
2019-03-06T04:58:16.979Z,16.73
2019-03-06T05:00:47.846Z,17.10
2019-03-06T05:03:18.821Z,22.23
2019-03-06T05:05:49.696Z,18.97
2019-03-06T05:08:20.519Z,19.03
2019-03-06T05:10:51.350Z,15.70
2019-03-06T05:13:22.110Z,18.47
2019-03-06T05:15:52.941Z,15.37
2019-03-06T05:18:25.415Z,17.13
2019-03-06T05:20:56.286Z,16.83
2019-03-06T05:23:26.705Z,17.63
2019-03-06T05:25:57.518Z,16.73
2019-03-06T05:28:28.319Z,16.40
2019-03-06T05:31:05.542Z,15.80
2019-03-06T05:33:36.303Z,15.03
2019-03-06T05:36:16.209Z,16.03
2019-03-06T05:39:05.319Z,16.50
2019-03-06T05:41:36.548Z,16.17
2019-03-06T05:44:07.367Z,15.20
2019-03-06T05:46:38.181Z,15.30
2019-03-06T05:49:09.464Z,19.07
2019-03-06T05:51:41.558Z,17.40
2019-03-06T05:54:12.567Z,16.43
2019-03-06T05:56:48.462Z,16.37
2019-03-06T05:59:19.549Z,19.00
2019-03-06T06:01:50.333Z,17.33
2019-03-06T06:04:21.524Z,18.10
2019-03-06T06:06:52.359Z,19.97
2019-03-06T06:09:23.095Z,20.40
2019-03-06T06:11:53.823Z,17.73
2019-03-06T06:14:24.605Z,18.83
2019-03-06T06:16:55.670Z,20.47
2019-03-06T06:19:26.640Z,17.73
2019-03-06T06:21:58.732Z,18.47
2019-03-06T06:24:29.542Z,19.23
2019-03-06T06:27:00.031Z,19.07
2019-03-06T06:29:31.139Z,21.70
2019-03-06T06:32:02.674Z,20.80
2019-03-06T06:34:33.500Z,18.83
2019-03-06T06:37:04.361Z,17.83
2019-03-06T06:39:35.281Z,20.37
2019-03-06T06:42:06.110Z,19.57
2019-03-06T06:44:36.837Z,22.80
2019-03-06T06:47:07.577Z,19.73
2019-03-06T06:49:38.094Z,22.47
2019-03-06T06:52:20.729Z,22.93
2019-03-06T06:55:09.704Z,26.83
2019-03-06T06:57:52.636Z,28.40
2019-03-06T07:00:51.813Z,30.50
2019-03-06T07:03:38.344Z,32.23
2019-03-06T07:06:13.397Z,28.63
2019-03-06T07:08:51.902Z,27.00
2019-03-06T07:11:35.936Z,24.00
2019-03-06T07:14:20.205Z,24.70
2019-03-06T07:16:52.666Z,20.13
2019-03-06T07:19:37.254Z,25.33
2019-03-06T07:22:10.391Z,21.53
2019-03-06T07:24:51.695Z,20.83
2019-03-06T07:27:30.011Z,20.97
2019-03-06T07:30:08.710Z,20.07
2019-03-06T07:32:46.811Z,20.10
2019-03-06T07:35:51.127Z,18.93
2019-03-06T07:38:22.004Z,17.47
2019-03-06T07:40:56.772Z,19.47
2019-03-06T07:43:29.179Z,18.33
2019-03-06T07:46:01.309Z,17.73
2019-03-06T07:48:33.800Z,17.90
2019-03-06T07:51:24.335Z,19.60
2019-03-06T07:54:01.895Z,17.33
2019-03-06T07:56:34.377Z,17.43
2019-03-06T07:59:05.417Z,17.43
2019-03-06T08:01:45.077Z,18.27
2019-03-06T08:04:16.629Z,17.90
2019-03-06T08:06:48.746Z,14.60
2019-03-06T08:09:21.159Z,17.17
2019-03-06T08:11:53.731Z,14.93
2019-03-06T08:14:42.162Z,15.53
2019-03-06T08:17:26.674Z,14.97
2019-03-06T08:20:11.208Z,16.57
2019-03-06T08:22:59.858Z,14.90
2019-03-06T08:25:35.295Z,15.30
2019-03-06T08:28:06.031Z,16.40
2019-03-06T08:30:38.410Z,14.80
2019-03-06T08:33:17.982Z,16.63
2019-03-06T08:35:41.721Z,15.50
2019-03-06T08:38:12.587Z,16.50
2019-03-06T08:40:43.521Z,14.47
2019-03-06T08:43:14.317Z,15.13
2019-03-06T08:46:02.998Z,16.67
2019-03-06T08:48:38.036Z,12.37
2019-03-06T08:51:13.372Z,18.57
2019-03-06T08:53:51.909Z,14.57
2019-03-06T08:56:38.957Z,14.17
2019-03-06T08:59:19.977Z,11.80
2019-03-06T09:02:00.989Z,12.93
2019-03-06T09:04:45.238Z,12.17
2019-03-06T09:07:18.081Z,13.23
2019-03-06T09:09:56.286Z,12.13
2019-03-06T09:12:40.430Z,12.57
2019-03-06T09:15:15.470Z,12.57
2019-03-06T09:17:47.844Z,13.00
2019-03-06T09:20:40.738Z,11.30
2019-03-06T09:23:23.137Z,12.33
2019-03-06T09:25:56.302Z,14.17
2019-03-06T09:28:44.063Z,11.23
2019-03-06T09:31:25.266Z,14.13
2019-03-06T09:34:00.363Z,13.93
2019-03-06T09:36:33.077Z,14.10
2019-03-06T09:39:07.152Z,11.33
2019-03-06T09:41:39.624Z,13.83
2019-03-06T09:44:12.017Z,12.20
2019-03-06T09:46:47.693Z,11.27
2019-03-06T09:49:26.076Z,18.47
2019-03-06T09:52:04.486Z,17.50
2019-03-06T09:54:55.141Z,20.97
2019-03-06T09:57:27.962Z,14.40
2019-03-06T10:00:00.451Z,12.33
2019-03-06T10:02:47.867Z,11.00
2019-03-06T10:05:26.092Z,10.03
2019-03-06T10:08:00.883Z,9.23
2019-03-06T10:10:36.256Z,8.77
2019-03-06T10:13:17.629Z,10.10
2019-03-06T10:15:50.100Z,9.83
2019-03-06T10:18:26.848Z,8.37
2019-03-06T10:20:58.116Z,10.80
2019-03-06T10:23:29.069Z,11.13
2019-03-06T10:25:59.553Z,10.50
2019-03-06T10:28:30.433Z,13.27
2019-03-06T10:31:02.698Z,13.47
2019-03-06T10:33:33.642Z,14.37
2019-03-06T10:36:05.359Z,9.53
2019-03-06T10:38:35.737Z,11.63
2019-03-06T10:41:06.555Z,9.87
2019-03-06T10:43:37.404Z,7.60
2019-03-06T10:46:09.533Z,8.70
2019-03-06T10:48:40.397Z,9.27
2019-03-06T10:51:11.392Z,10.97
2019-03-06T10:53:42.271Z,8.40
2019-03-06T10:56:14.451Z,8.57
2019-03-06T10:58:45.283Z,7.53
2019-03-06T11:01:17.370Z,9.00
2019-03-06T11:03:52.386Z,8.30
2019-03-06T11:06:22.886Z,7.53
2019-03-06T11:08:53.745Z,10.43
2019-03-06T11:11:24.389Z,6.20
2019-03-06T11:13:55.265Z,10.07
2019-03-06T11:16:26.063Z,15.30
2019-03-06T11:18:57.407Z,7.83
2019-03-06T11:21:28.438Z,7.93
2019-03-06T11:23:59.172Z,9.77
2019-03-06T11:26:30.535Z,7.67
2019-03-06T11:29:01.467Z,7.53
2019-03-06T11:31:33.334Z,6.87
2019-03-06T11:34:04.556Z,7.33
2019-03-06T11:36:35.456Z,6.43
2019-03-06T11:39:09.162Z,7.30
2019-03-06T11:41:40.284Z,6.27
2019-03-06T11:44:11.002Z,6.93
2019-03-06T11:46:41.837Z,8.67
2019-03-06T11:49:12.579Z,10.50
2019-03-06T11:51:43.398Z,8.30
2019-03-06T11:54:14.543Z,9.37
2019-03-06T11:56:45.376Z,7.63
2019-03-06T11:59:15.821Z,9.00
2019-03-06T12:01:48.457Z,7.47
2019-03-06T12:04:19.303Z,6.63
2019-03-06T12:06:50.198Z,7.37
2019-03-06T12:09:26.058Z,6.07
2019-03-06T12:11:57.054Z,6.37
2019-03-06T12:14:27.563Z,8.97
2019-03-06T12:16:58.008Z,10.03
2019-03-06T12:19:28.511Z,12.70
2019-03-06T12:21:59.494Z,7.57
2019-03-06T12:24:30.317Z,6.13
2019-03-06T12:27:01.358Z,6.90
2019-03-06T12:29:32.311Z,7.33
2019-03-06T12:32:03.849Z,6.07
2019-03-06T12:34:34.433Z,5.33
2019-03-06T12:37:05.225Z,5.47
2019-03-06T12:39:36.155Z,7.03
2019-03-06T12:42:13.918Z,6.63
2019-03-06T12:44:39.672Z,6.00
2019-03-06T12:47:10.976Z,6.00
2019-03-06T12:49:42.067Z,7.60
2019-03-06T12:52:12.951Z,5.23
2019-03-06T12:54:43.637Z,5.87
2019-03-06T12:57:14.890Z,7.80
2019-03-06T12:59:45.720Z,6.90
2019-03-06T13:02:16.441Z,9.97
2019-03-06T13:04:47.194Z,7.90
2019-03-06T13:07:18.219Z,7.80
2019-03-06T13:09:49.473Z,5.43
2019-03-06T13:12:20.298Z,6.40
2019-03-06T13:14:51.143Z,5.77
2019-03-06T13:17:22.418Z,6.07
2019-03-06T13:19:53.247Z,4.97
2019-03-06T13:22:24.108Z,5.43
2019-03-06T13:24:54.909Z,5.87
2019-03-06T13:27:25.641Z,4.53
2019-03-06T13:29:56.140Z,3.93
2019-03-06T13:32:28.547Z,6.37
2019-03-06T13:34:59.876Z,4.10
2019-03-06T13:37:30.771Z,4.17
2019-03-06T13:40:03.311Z,3.53
2019-03-06T13:42:34.138Z,5.57
2019-03-06T13:45:07.045Z,4.17
2019-03-06T13:47:38.068Z,6.60
2019-03-06T13:50:12.724Z,3.40
2019-03-06T13:52:43.645Z,5.37
2019-03-06T13:55:16.315Z,3.60
2019-03-06T13:57:47.605Z,4.67
2019-03-06T14:00:19.915Z,4.13
2019-03-06T14:02:54.464Z,5.03
2019-03-06T14:05:25.680Z,3.40
2019-03-06T14:07:57.025Z,4.73
2019-03-06T14:10:28.101Z,4.07
2019-03-06T14:12:58.921Z,4.90
2019-03-06T14:15:29.766Z,3.47
2019-03-06T14:18:00.909Z,3.17
2019-03-06T14:20:33.307Z,4.43
2019-03-06T14:23:04.732Z,5.67
2019-03-06T14:25:35.671Z,4.40
2019-03-06T14:28:06.503Z,4.03
2019-03-06T14:30:39.328Z,3.77
2019-03-06T14:33:15.083Z,4.33
2019-03-06T14:35:44.384Z,7.63
2019-03-06T14:38:15.852Z,6.10
2019-03-06T14:40:48.429Z,4.30
2019-03-06T14:43:20.826Z,4.53
2019-03-06T14:45:55.059Z,5.13
2019-03-06T14:48:28.544Z,3.70
2019-03-06T14:51:02.718Z,4.57
2019-03-06T14:53:36.305Z,5.03
2019-03-06T14:56:07.104Z,4.03
2019-03-06T14:58:37.936Z,5.07
2019-03-06T15:01:08.786Z,4.67
2019-03-06T15:03:39.503Z,6.13
2019-03-06T15:06:10.341Z,5.20
2019-03-06T15:08:41.076Z,6.00
2019-03-06T15:11:12.006Z,5.30
2019-03-06T15:13:43.068Z,6.23
2019-03-06T15:16:14.163Z,5.97
2019-03-06T15:18:44.986Z,4.03
2019-03-06T15:21:15.814Z,4.83
2019-03-06T15:23:46.619Z,5.63
2019-03-06T15:26:17.655Z,3.90
2019-03-06T15:28:48.417Z,6.57
2019-03-06T15:31:19.325Z,14.20
2019-03-06T15:33:50.191Z,10.30
2019-03-06T15:36:21.057Z,5.90
2019-03-06T15:38:51.963Z,5.67
2019-03-06T15:41:22.774Z,5.30
2019-03-06T15:43:54.646Z,5.67
2019-03-06T15:46:26.900Z,5.73
2019-03-06T15:48:57.887Z,5.47
2019-03-06T15:51:28.814Z,4.60
2019-03-06T15:54:00.148Z,6.17
2019-03-06T15:56:30.996Z,7.87
2019-03-06T15:59:01.760Z,7.53
2019-03-06T16:01:34.179Z,7.63
2019-03-06T16:04:06.880Z,8.20
2019-03-06T16:06:37.699Z,6.33
2019-03-06T16:09:09.293Z,9.83
2019-03-06T16:11:40.568Z,8.33
2019-03-06T16:14:11.900Z,8.03
2019-03-06T16:16:45.206Z,6.37
2019-03-06T16:19:19.202Z,6.20
2019-03-06T16:21:50.370Z,6.17
2019-03-06T16:24:21.828Z,6.43
2019-03-06T16:26:53.021Z,12.47
2019-03-06T16:29:23.896Z,8.73
2019-03-06T16:31:54.888Z,8.20
2019-03-06T16:34:25.706Z,8.50
2019-03-06T16:36:56.542Z,8.87
2019-03-06T16:39:27.734Z,7.87
2019-03-06T16:41:58.287Z,9.20
2019-03-06T16:44:29.083Z,7.23
2019-03-06T16:47:06.449Z,6.60
2019-03-06T16:49:32.381Z,8.20
2019-03-06T16:52:03.878Z,7.30
2019-03-06T16:54:34.822Z,9.80
2019-03-06T16:57:05.692Z,8.47
2019-03-06T16:59:36.537Z,8.23
2019-03-06T17:02:07.142Z,10.60
2019-03-06T17:04:38.988Z,9.67
2019-03-06T17:07:09.518Z,8.57
2019-03-06T17:09:40.384Z,8.43
2019-03-06T17:12:11.607Z,9.63
2019-03-06T17:14:42.526Z,9.07
2019-03-06T17:17:13.542Z,8.73
2019-03-06T17:19:44.498Z,9.63
2019-03-06T17:22:15.716Z,9.33
2019-03-06T17:24:46.575Z,8.83
2019-03-06T17:27:17.522Z,10.17
2019-03-06T17:29:48.348Z,10.27
2019-03-06T17:32:19.190Z,11.90
2019-03-06T17:34:50.310Z,11.90
2019-03-06T17:37:21.601Z,9.70
2019-03-06T17:39:52.151Z,11.13
2019-03-06T17:42:23.126Z,11.23
2019-03-06T17:44:54.317Z,9.77
2019-03-06T17:47:25.021Z,9.57
2019-03-06T17:49:56.045Z,10.57
2019-03-06T17:52:27.169Z,9.70
2019-03-06T17:54:58.245Z,9.80
2019-03-06T17:57:29.181Z,10.10
2019-03-06T17:59:59.669Z,10.20
2019-03-06T18:02:30.260Z,9.87
2019-03-06T18:05:01.076Z,9.73
2019-03-06T18:07:31.954Z,10.67
2019-03-06T18:10:02.872Z,9.97
2019-03-06T18:12:33.688Z,11.53
2019-03-06T18:15:07.410Z,9.60
2019-03-06T18:17:37.940Z,9.73
2019-03-06T18:20:11.931Z,9.20
2019-03-06T18:22:42.756Z,9.53
2019-03-06T18:25:16.280Z,9.47
2019-03-06T18:27:47.591Z,8.80
2019-03-06T18:30:19.522Z,9.73
2019-03-06T18:32:50.694Z,10.10
2019-03-06T18:35:22.696Z,8.87
2019-03-06T18:37:53.623Z,9.67
2019-03-06T18:40:31.306Z,10.13
2019-03-06T18:43:02.082Z,8.97
2019-03-06T18:45:32.952Z,9.23
2019-03-06T18:48:03.842Z,8.63
2019-03-06T18:50:34.708Z,7.97
2019-03-06T18:53:11.414Z,10.00
2019-03-06T18:55:42.661Z,8.23
2019-03-06T18:58:14.222Z,8.20
2019-03-06T19:00:46.518Z,9.03
2019-03-06T19:03:17.093Z,8.40
2019-03-06T19:05:48.108Z,7.33
2019-03-06T19:08:19.375Z,8.00
2019-03-06T19:10:50.375Z,8.37
2019-03-06T19:13:22.728Z,7.53
2019-03-06T19:15:53.913Z,7.60
2019-03-06T19:18:24.942Z,9.60
2019-03-06T19:20:56.471Z,8.50
2019-03-06T19:23:27.343Z,6.80
2019-03-06T19:25:58.447Z,7.33
2019-03-06T19:28:29.306Z,7.70
2019-03-06T19:31:00.126Z,7.87
2019-03-06T19:33:31.290Z,7.40
2019-03-06T19:36:09.427Z,8.37
2019-03-06T19:38:39.966Z,6.87
2019-03-06T19:41:11.056Z,7.33
2019-03-06T19:43:42.092Z,7.33
2019-03-06T19:46:14.660Z,7.10
2019-03-06T19:48:45.549Z,7.57
2019-03-06T19:51:16.431Z,7.73
2019-03-06T19:53:48.427Z,6.83
2019-03-06T19:56:19.375Z,7.03
2019-03-06T19:58:50.280Z,7.17
2019-03-06T20:01:21.138Z,6.50
2019-03-06T20:03:52.181Z,7.10
2019-03-06T20:06:26.960Z,7.70
2019-03-06T20:08:58.760Z,6.37
2019-03-06T20:11:58.509Z,6.73
2019-03-06T20:14:18.132Z,9.17
2019-03-06T20:16:48.999Z,7.23
2019-03-06T20:19:19.819Z,6.90
2019-03-06T20:21:50.738Z,7.13
2019-03-06T20:24:21.713Z,6.20
2019-03-06T20:26:52.533Z,6.37
2019-03-06T20:29:23.503Z,8.87
2019-03-06T20:31:53.963Z,6.07
2019-03-06T20:34:24.772Z,6.63
2019-03-06T20:36:55.689Z,6.27
2019-03-06T20:39:26.201Z,8.53
2019-03-06T20:41:57.043Z,6.53
2019-03-06T20:44:32.268Z,9.90
2019-03-06T20:47:03.155Z,7.77
2019-03-06T20:49:34.154Z,8.17
2019-03-06T20:52:05.205Z,7.77
2019-03-06T20:54:36.056Z,9.37
2019-03-06T20:57:06.984Z,6.07
2019-03-06T20:59:37.812Z,6.37
2019-03-06T21:02:08.642Z,6.00
2019-03-06T21:04:39.613Z,6.33
2019-03-06T21:07:10.585Z,7.07
2019-03-06T21:09:41.544Z,6.30
2019-03-06T21:12:12.408Z,6.10
2019-03-06T21:14:46.014Z,7.07
2019-03-06T21:17:16.941Z,5.90
2019-03-06T21:19:48.214Z,7.47
2019-03-06T21:22:19.022Z,6.53
2019-03-06T21:24:50.011Z,6.33
2019-03-06T21:27:20.960Z,6.40
2019-03-06T21:29:51.747Z,5.53
2019-03-06T21:32:23.590Z,7.13
2019-03-06T21:34:54.499Z,5.50
2019-03-06T21:37:25.382Z,7.63
2019-03-06T21:39:57.332Z,5.63
2019-03-06T21:42:27.801Z,6.50
2019-03-06T21:44:58.756Z,5.93
2019-03-06T21:47:31.383Z,6.27
2019-03-06T21:50:02.322Z,8.30
2019-03-06T21:52:33.185Z,7.03
2019-03-06T21:55:04.715Z,6.07
2019-03-06T21:57:35.576Z,7.03
2019-03-06T22:00:09.319Z,6.90
2019-03-06T22:02:40.195Z,6.67
2019-03-06T22:05:10.706Z,5.80
2019-03-06T22:07:41.559Z,6.90
2019-03-06T22:10:15.468Z,5.53
2019-03-06T22:12:46.383Z,6.90
2019-03-06T22:15:18.571Z,7.53
2019-03-06T22:17:49.507Z,8.23
2019-03-06T22:20:19.944Z,6.00
2019-03-06T22:22:50.722Z,6.70
2019-03-06T22:25:21.611Z,7.60
2019-03-06T22:27:52.497Z,7.20
2019-03-06T22:30:24.409Z,6.90
2019-03-06T22:32:55.253Z,10.13
2019-03-06T22:35:26.087Z,6.30
2019-03-06T22:37:57.466Z,7.37
2019-03-06T22:40:28.614Z,7.70
2019-03-06T22:42:59.525Z,6.93
2019-03-06T22:45:29.979Z,6.83
2019-03-06T22:48:00.825Z,6.40
2019-03-06T22:50:31.361Z,7.10
2019-03-06T22:53:02.293Z,7.37
2019-03-06T22:55:33.235Z,6.97
2019-03-06T22:58:04.182Z,8.13
2019-03-06T23:00:45.413Z,7.17
2019-03-06T23:03:18.620Z,7.60
2019-03-06T23:05:50.975Z,7.50
2019-03-06T23:08:23.455Z,6.50
2019-03-06T23:10:57.057Z,6.53
2019-03-06T23:13:28.200Z,6.17
2019-03-06T23:15:59.036Z,7.77
2019-03-06T23:18:29.874Z,7.53
2019-03-06T23:21:00.709Z,6.47
2019-03-06T23:23:31.649Z,6.87
2019-03-06T23:26:02.481Z,6.40
2019-03-06T23:28:33.319Z,6.83
2019-03-06T23:31:04.324Z,7.67
2019-03-06T23:33:35.093Z,7.53
2019-03-06T23:36:05.920Z,6.63
2019-03-06T23:38:38.430Z,6.60
2019-03-06T23:41:10.947Z,7.07
2019-03-06T23:43:41.823Z,7.90
2019-03-06T23:46:14.329Z,6.70
2019-03-06T23:48:45.304Z,8.13
2019-03-06T23:51:18.009Z,6.80
2019-03-06T23:53:52.863Z,7.60
2019-03-06T23:56:23.689Z,7.27
2019-03-06T23:58:54.621Z,6.90
